Hillsboro, Texas
Current Conditions -  °F | °C
As of 6:15 PM on Monday 22 Dec 2014 (Local Time) from KINJ Reporting Station
Clear Clear  
Wind Chill: 57°   Ceiling: Unl
Heat Index: 57°   Visibility: 10mi
Dew Point: 44°   Wind: 5mph
Humidity: 63%   Direction: 350°N
Pressure: 29.65"   Gusts: NA
Location:  32.01°N, 97.13°W
Report Text: KINJ 230015Z AUTO 35004KT 10SM CLR 14/07 A2965 RMK AO2 T01380068
Loading
Personal Weather Stations






























Interactive Weather Map New forecast layout! Learn more

10-Day Weather Forecast

Advertisements
Track Severe Weather on mobile